sensor_id;sensor_type;location;lat;lon;timestamp;pressure;altitude;pressure_sealevel;temperature;humidity
73341;BME280;61578;52.002;5.468;2023-04-29T00:00:11;101407.09;;;10.73;90.13
73341;BME280;61578;52.002;5.468;2023-04-29T00:00:46;101417.66;;;10.75;90.01
73341;BME280;61578;52.002;5.468;2023-04-29T00:01:25;101421.00;;;10.78;89.88
73341;BME280;61578;52.002;5.468;2023-04-29T00:01:56;101408.19;;;10.69;90.02
73341;BME280;61578;52.002;5.468;2023-04-29T00:02:28;101415.16;;;10.72;89.60
73341;BME280;61578;52.002;5.468;2023-04-29T00:02:59;101421.16;;;10.75;89.79
73341;BME280;61578;52.002;5.468;2023-04-29T00:03:30;101417.66;;;10.75;89.54
73341;BME280;61578;52.002;5.468;2023-04-29T00:04:15;101423.91;;;10.74;90.00
73341;BME280;61578;52.002;5.468;2023-04-29T00:04:46;101422.09;;;10.74;89.67
73341;BME280;61578;52.002;5.468;2023-04-29T00:05:16;101423.81;;;10.75;90.11
73341;BME280;61578;52.002;5.468;2023-04-29T00:05:50;101428.28;;;10.75;89.90
73341;BME280;61578;52.002;5.468;2023-04-29T00:06:21;101437.19;;;10.74;90.46
73341;BME280;61578;52.002;5.468;2023-04-29T00:06:57;101423.91;;;10.74;90.53
73341;BME280;61578;52.002;5.468;2023-04-29T00:07:27;101375.84;;;10.47;90.77
73341;BME280;61578;52.002;5.468;2023-04-29T00:07:58;101430.75;;;10.78;90.91
73341;BME280;61578;52.002;5.468;2023-04-29T00:08:29;101425.63;;;10.75;90.49
73341;BME280;61578;52.002;5.468;2023-04-29T00:08:59;101424.66;;;10.76;89.93
73341;BME280;61578;52.002;5.468;2023-04-29T00:09:33;101426.38;;;10.77;90.21
73341;BME280;61578;52.002;5.468;2023-04-29T00:10:04;101385.25;;;10.52;90.23
73341;BME280;61578;52.002;5.468;2023-04-29T00:10:35;101428.28;;;10.75;90.31
73341;BME280;61578;52.002;5.468;2023-04-29T00:11:07;101433.41;;;10.78;90.41
73341;BME280;61578;52.002;5.468;2023-04-29T00:11:37;101428.19;;;10.76;90.75
73341;BME280;61578;52.002;5.468;2023-04-29T00:12:09;101388.59;;;10.56;90.94
73341;BME280;61578;52.002;5.468;2023-04-29T00:12:40;101435.47;;;10.73;90.14
73341;BME280;61578;52.002;5.468;2023-04-29T00:13:11;101422.97;;;10.75;90.23
73341;BME280;61578;52.002;5.468;2023-04-29T00:13:42;101430.84;;;10.76;90.26
73341;BME280;61578;52.002;5.468;2023-04-29T00:14:13;101430.00;;;10.76;90.56
73341;BME280;61578;52.002;5.468;2023-04-29T00:14:44;101436.16;;;10.76;90.38
73341;BME280;61578;52.002;5.468;2023-04-29T00:15:14;101428.28;;;10.75;90.50
73341;BME280;61578;52.002;5.468;2023-04-29T00:15:45;101424.66;;;10.76;91.09
73341;BME280;61578;52.002;5.468;2023-04-29T00:16:19;101379.34;;;10.47;90.80
73341;BME280;61578;52.002;5.468;2023-04-29T00:16:49;101429.22;;;10.74;90.67
73341;BME280;61578;52.002;5.468;2023-04-29T00:17:21;101423.31;;;10.68;90.63
73341;BME280;61578;52.002;5.468;2023-04-29T00:17:52;101433.56;;;10.75;90.76
73341;BME280;61578;52.002;5.468;2023-04-29T00:18:25;101424.13;;;10.69;90.63
73341;BME280;61578;52.002;5.468;2023-04-29T00:18:59;101431.16;;;10.70;90.50
73341;BME280;61578;52.002;5.468;2023-04-29T00:19:30;101424.13;;;10.69;90.73
73341;BME280;61578;52.002;5.468;2023-04-29T00:20:01;101376.94;;;10.43;90.93
73341;BME280;61578;52.002;5.468;2023-04-29T00:20:32;101420.47;;;10.72;90.95
73341;BME280;61578;52.002;5.468;2023-04-29T00:21:03;101378.56;;;10.45;90.50
73341;BME280;61578;52.002;5.468;2023-04-29T00:21:35;101431.88;;;10.74;90.76
73341;BME280;61578;52.002;5.468;2023-04-29T00:22:06;101434.53;;;10.74;91.17
73341;BME280;61578;52.002;5.468;2023-04-29T00:22:39;101436.47;;;10.70;90.76
73341;BME280;61578;52.002;5.468;2023-04-29T00:23:10;101432.81;;;10.73;90.71
73341;BME280;61578;52.002;5.468;2023-04-29T00:23:41;101433.66;;;10.73;90.79
73341;BME280;61578;52.002;5.468;2023-04-29T00:24:11;101435.03;;;10.64;90.39
73341;BME280;61578;52.002;5.468;2023-04-29T00:24:45;101399.66;;;10.48;90.72
73341;BME280;61578;52.002;5.468;2023-04-29T00:25:18;101438.28;;;10.69;90.45
73341;BME280;61578;52.002;5.468;2023-04-29T00:25:52;101436.75;;;10.65;90.80
73341;BME280;61578;52.002;5.468;2023-04-29T00:26:23;101438.19;;;10.71;90.28
73341;BME280;61578;52.002;5.468;2023-04-29T00:26:55;101433.94;;;10.68;90.50
73341;BME280;61578;52.002;5.468;2023-04-29T00:27:26;101433.75;;;10.72;90.58
73341;BME280;61578;52.002;5.468;2023-04-29T00:27:57;101447.09;;;10.70;90.53
73341;BME280;61578;52.002;5.468;2023-04-29T00:28:40;101448.91;;;10.69;91.15
73341;BME280;61578;52.002;5.468;2023-04-29T00:29:14;101454.31;;;10.68;91.57
73341;BME280;61578;52.002;5.468;2023-04-29T00:29:45;101447.22;;;10.68;91.11
73341;BME280;61578;52.002;5.468;2023-04-29T00:30:17;101449.88;;;10.68;90.68
73341;BME280;61578;52.002;5.468;2023-04-29T00:30:48;101452.53;;;10.68;91.32
73341;BME280;61578;52.002;5.468;2023-04-29T00:31:18;101447.22;;;10.68;91.13
73341;BME280;61578;52.002;5.468;2023-04-29T00:31:49;101448.22;;;10.66;90.96
73341;BME280;61578;52.002;5.468;2023-04-29T00:32:23;101445.72;;;10.63;91.44
73341;BME280;61578;52.002;5.468;2023-04-29T00:32:54;101449.25;;;10.63;91.60
73341;BME280;61578;52.002;5.468;2023-04-29T00:33:24;101448.91;;;10.69;91.82
73341;BME280;61578;52.002;5.468;2023-04-29T00:33:55;101456.97;;;10.68;90.95
73341;BME280;61578;52.002;5.468;2023-04-29T00:34:30;101451.66;;;10.68;91.66
73341;BME280;61578;52.002;5.468;2023-04-29T00:35:01;101461.31;;;10.69;91.42
73341;BME280;61578;52.002;5.468;2023-04-29T00:35:34;101462.19;;;10.69;90.79
73341;BME280;61578;52.002;5.468;2023-04-29T00:36:07;101454.41;;;10.66;91.04
73341;BME280;61578;52.002;5.468;2023-04-29T00:36:38;101470.25;;;10.68;91.13
73341;BME280;61578;52.002;5.468;2023-04-29T00:37:09;101456.00;;;10.69;91.38
73341;BME280;61578;52.002;5.468;2023-04-29T00:37:40;101457.91;;;10.67;90.88
73341;BME280;61578;52.002;5.468;2023-04-29T00:38:13;101463.03;;;10.70;91.41
73341;BME280;61578;52.002;5.468;2023-04-29T00:38:43;101456.13;;;10.67;91.33
73341;BME280;61578;52.002;5.468;2023-04-29T00:39:14;101468.19;;;10.73;91.69
73341;BME280;61578;52.002;5.468;2023-04-29T00:39:44;101422.56;;;10.49;91.55
73341;BME280;61578;52.002;5.468;2023-04-29T00:40:15;101455.06;;;10.70;91.47
73341;BME280;61578;52.002;5.468;2023-04-29T00:40:47;101470.91;;;10.72;91.23
73341;BME280;61578;52.002;5.468;2023-04-29T00:41:18;101455.84;;;10.72;91.46
73341;BME280;61578;52.002;5.468;2023-04-29T00:41:49;101465.59;;;10.72;91.69
73341;BME280;61578;52.002;5.468;2023-04-29T00:42:19;101455.00;;;10.72;91.43
73341;BME280;61578;52.002;5.468;2023-04-29T00:42:51;101460.22;;;10.73;91.33
73341;BME280;61578;52.002;5.468;2023-04-29T00:43:21;101456.88;;;10.69;90.74
73341;BME280;61578;52.002;5.468;2023-04-29T00:43:52;101460.50;;;10.68;91.09
73341;BME280;61578;52.002;5.468;2023-04-29T00:44:22;101462.19;;;10.69;90.92
73341;BME280;61578;52.002;5.468;2023-04-29T00:44:56;101459.63;;;10.68;91.19
73341;BME280;61578;52.002;5.468;2023-04-29T00:45:27;101458.56;;;10.70;91.00
73341;BME280;61578;52.002;5.468;2023-04-29T00:45:59;101463.88;;;10.70;90.83
73341;BME280;61578;52.002;5.468;2023-04-29T00:46:30;101449.09;;;10.66;91.40
73341;BME280;61578;52.002;5.468;2023-04-29T00:47:03;101463.97;;;10.69;91.22
73341;BME280;61578;52.002;5.468;2023-04-29T00:47:34;101422.56;;;10.49;90.88
73341;BME280;61578;52.002;5.468;2023-04-29T00:48:04;101457.91;;;10.67;91.27
73341;BME280;61578;52.002;5.468;2023-04-29T00:48:35;101456.88;;;10.69;91.08
73341;BME280;61578;52.002;5.468;2023-04-29T00:49:07;101462.09;;;10.71;90.94
73341;BME280;61578;52.002;5.468;2023-04-29T00:49:40;101472.78;;;10.69;91.33
73341;BME280;61578;52.002;5.468;2023-04-29T00:50:13;101457.13;;;10.65;91.42
73341;BME280;61578;52.002;5.468;2023-04-29T00:50:44;101464.84;;;10.69;91.59
73341;BME280;61578;52.002;5.468;2023-04-29T00:51:15;101469.19;;;10.70;91.31
73341;BME280;61578;52.002;5.468;2023-04-29T00:51:50;101422.69;;;10.48;91.17
73341;BME280;61578;52.002;5.468;2023-04-29T00:52:22;101465.53;;;10.73;90.93
73341;BME280;61578;52.002;5.468;2023-04-29T00:52:52;101462.09;;;10.71;90.92
73341;BME280;61578;52.002;5.468;2023-04-29T00:53:30;101392.72;;;10.28;91.04
73341;BME280;61578;52.002;5.468;2023-04-29T00:54:03;101463.03;;;10.70;91.20
73341;BME280;61578;52.002;5.468;2023-04-29T00:54:36;101467.41;;;10.71;91.30
73341;BME280;61578;52.002;5.468;2023-04-29T00:55:07;101467.41;;;10.71;91.39
73341;BME280;61578;52.002;5.468;2023-04-29T00:55:40;101468.25;;;10.72;91.28
73341;BME280;61578;52.002;5.468;2023-04-29T00:56:13;101463.81;;;10.72;91.53
73341;BME280;61578;52.002;5.468;2023-04-29T00:56:45;101458.66;;;10.69;91.26
73341;BME280;61578;52.002;5.468;2023-04-29T00:57:18;101469.13;;;10.72;91.09
73341;BME280;61578;52.002;5.468;2023-04-29T00:57:49;101457.84;;;10.68;91.48
73341;BME280;61578;52.002;5.468;2023-04-29T00:58:24;101418.38;;;10.45;91.79
73341;BME280;61578;52.002;5.468;2023-04-29T00:59:02;101472.72;;;10.71;91.66
73341;BME280;61578;52.002;5.468;2023-04-29T00:59:34;101466.75;;;10.67;91.53
73341;BME280;61578;52.002;5.468;2023-04-29T01:00:06;101465.59;;;10.72;91.88
73341;BME280;61578;52.002;5.468;2023-04-29T01:00:40;101471.78;;;10.72;91.28
73341;BME280;61578;52.002;5.468;2023-04-29T01:01:11;101463.03;;;10.70;91.26
73341;BME280;61578;52.002;5.468;2023-04-29T01:01:43;101468.47;;;10.68;90.93
73341;BME280;61578;52.002;5.468;2023-04-29T01:02:14;101465.59;;;10.72;91.34
73341;BME280;61578;52.002;5.468;2023-04-29T01:02:48;101468.25;;;10.72;91.41
73341;BME280;61578;52.002;5.468;2023-04-29T01:03:19;101415.09;;;10.40;91.06
73341;BME280;61578;52.002;5.468;2023-04-29T01:03:51;101483.41;;;10.69;91.64
73341;BME280;61578;52.002;5.468;2023-04-29T01:04:21;101472.63;;;10.73;91.31
73341;BME280;61578;52.002;5.468;2023-04-29T01:04:54;101466.47;;;10.72;91.64
73341;BME280;61578;52.002;5.468;2023-04-29T01:05:25;101470.06;;;10.71;91.46
73341;BME280;61578;52.002;5.468;2023-04-29T01:11:00;101480.94;;;10.66;91.41
73341;BME280;61578;52.002;5.468;2023-04-29T01:14:04;101476.56;;;10.65;91.73
73341;BME280;61578;52.002;5.468;2023-04-29T01:14:38;101476.81;;;10.61;91.95
73341;BME280;61578;52.002;5.468;2023-04-29T01:15:21;101477.66;;;10.61;91.36
73341;BME280;61578;52.002;5.468;2023-04-29T01:16:02;101484.63;;;10.64;91.60
73341;BME280;61578;52.002;5.468;2023-04-29T01:16:41;101486.19;;;10.68;91.82
73341;BME280;61578;52.002;5.468;2023-04-29T01:17:19;101488.13;;;10.64;91.39
73341;BME280;61578;52.002;5.468;2023-04-29T01:18:04;101443.38;;;10.41;91.41
73341;BME280;61578;52.002;5.468;2023-04-29T01:18:53;101482.91;;;10.63;92.21
73341;BME280;61578;52.002;5.468;2023-04-29T01:19:38;101500.31;;;10.68;91.61
73341;BME280;61578;52.002;5.468;2023-04-29T01:20:16;101491.38;;;10.69;91.33
73341;BME280;61578;52.002;5.468;2023-04-29T01:20:49;101486.50;;;10.62;91.48
73341;BME280;61578;52.002;5.468;2023-04-29T01:21:20;101450.47;;;10.41;90.96
73341;BME280;61578;52.002;5.468;2023-04-29T01:21:51;101494.22;;;10.66;91.48
73341;BME280;61578;52.002;5.468;2023-04-29T01:22:22;101475.31;;;10.40;91.22
73341;BME280;61578;52.002;5.468;2023-04-29T01:22:53;101486.41;;;10.63;91.71
73341;BME280;61578;52.002;5.468;2023-04-29T01:23:29;101495.47;;;10.59;90.94
73341;BME280;61578;52.002;5.468;2023-04-29T01:24:02;101494.63;;;10.59;91.22
73341;BME280;61578;52.002;5.468;2023-04-29T01:24:33;101493.53;;;10.63;91.23
73341;BME280;61578;52.002;5.468;2023-04-29T01:25:06;101449.97;;;10.34;91.20
73341;BME280;61578;52.002;5.468;2023-04-29T01:25:38;101493.78;;;10.58;91.22
73341;BME280;61578;52.002;5.468;2023-04-29T01:26:08;101497.19;;;10.60;91.63
73341;BME280;61578;52.002;5.468;2023-04-29T01:26:47;101497.13;;;10.62;90.96
73341;BME280;61578;52.002;5.468;2023-04-29T01:27:36;101503.28;;;10.62;91.64
73341;BME280;61578;52.002;5.468;2023-04-29T01:28:36;101479.97;;;10.52;91.21
73341;BME280;61578;52.002;5.468;2023-04-29T01:29:24;101489.41;;;10.57;91.48
73341;BME280;61578;52.002;5.468;2023-04-29T01:30:20;101490.16;;;10.59;91.90
73341;BME280;61578;52.002;5.468;2023-04-29T01:31:31;101496.25;;;10.61;91.97
73341;BME280;61578;52.002;5.468;2023-04-29T01:32:17;101495.66;;;10.56;91.71
73341;BME280;61578;52.002;5.468;2023-04-29T01:34:10;101502.44;;;10.62;91.18
73341;BME280;61578;52.002;5.468;2023-04-29T01:34:59;101466.47;;;10.39;91.56
73341;BME280;61578;52.002;5.468;2023-04-29T01:37:30;101503.38;;;10.61;92.04
73341;BME280;61578;52.002;5.468;2023-04-29T01:38:36;101496.59;;;10.55;91.81
73341;BME280;61578;52.002;5.468;2023-04-29T01:40:36;101513.31;;;10.57;91.47
73341;BME280;61578;52.002;5.468;2023-04-29T01:41:22;101508.00;;;10.57;91.21
73341;BME280;61578;52.002;5.468;2023-04-29T01:43:00;101499.09;;;10.58;91.75
73341;BME280;61578;52.002;5.468;2023-04-29T01:43:36;101501.66;;;10.60;91.94
73341;BME280;61578;52.002;5.468;2023-04-29T01:44:14;101509.72;;;10.58;91.15
73341;BME280;61578;52.002;5.468;2023-04-29T01:44:48;101507.91;;;10.59;91.18
73341;BME280;61578;52.002;5.468;2023-04-29T01:45:22;101503.00;;;10.51;91.47
73341;BME280;61578;52.002;5.468;2023-04-29T01:45:56;101498.47;;;10.53;91.05
73341;BME280;61578;52.002;5.468;2023-04-29T01:46:29;101521.28;;;10.57;91.10
73341;BME280;61578;52.002;5.468;2023-04-29T01:47:01;101518.53;;;10.59;91.68
73341;BME280;61578;52.002;5.468;2023-04-29T01:47:32;101507.16;;;10.57;91.23
73341;BME280;61578;52.002;5.468;2023-04-29T01:48:09;101502.84;;;10.54;90.98
73341;BME280;61578;52.002;5.468;2023-04-29T01:48:41;101511.69;;;10.55;90.67
73341;BME280;61578;52.002;5.468;2023-04-29T01:49:19;101512.63;;;10.54;90.92
73341;BME280;61578;52.002;5.468;2023-04-29T01:49:51;101515.25;;;10.54;90.76
73341;BME280;61578;52.002;5.468;2023-04-29T01:50:21;101514.63;;;10.49;91.15
73341;BME280;61578;52.002;5.468;2023-04-29T01:50:53;101499.69;;;10.48;90.96
73341;BME280;61578;52.002;5.468;2023-04-29T01:51:24;101512.69;;;10.52;91.01
73341;BME280;61578;52.002;5.468;2023-04-29T01:52:06;101499.75;;;10.46;91.13
73341;BME280;61578;52.002;5.468;2023-04-29T01:52:40;101518.00;;;10.52;90.98
73341;BME280;61578;52.002;5.468;2023-04-29T01:53:11;101507.44;;;10.51;91.42
73341;BME280;61578;52.002;5.468;2023-04-29T01:53:44;101517.84;;;10.55;91.75
73341;BME280;61578;52.002;5.468;2023-04-29T01:54:15;101511.75;;;10.53;91.58
73341;BME280;61578;52.002;5.468;2023-04-29T01:54:46;101470.41;;;10.32;91.70
73341;BME280;61578;52.002;5.468;2023-04-29T01:55:17;101512.53;;;10.55;91.52
73341;BME280;61578;52.002;5.468;2023-04-29T01:55:48;101490.56;;;10.36;91.32
73341;BME280;61578;52.002;5.468;2023-04-29T01:56:19;101516.91;;;10.56;91.57
73341;BME280;61578;52.002;5.468;2023-04-29T01:56:49;101524.88;;;10.56;91.81
73341;BME280;61578;52.002;5.468;2023-04-29T01:57:21;101483.69;;;10.32;91.62
73341;BME280;61578;52.002;5.468;2023-04-29T01:57:52;101517.84;;;10.55;91.42
73341;BME280;61578;52.002;5.468;2023-04-29T01:58:28;101523.22;;;10.54;91.37
73341;BME280;61578;52.002;5.468;2023-04-29T01:59:01;101520.56;;;10.54;91.46
73341;BME280;61578;52.002;5.468;2023-04-29T01:59:31;101525.88;;;10.54;91.68
73341;BME280;61578;52.002;5.468;2023-04-29T02:00:05;101517.13;;;10.52;91.67
73341;BME280;61578;52.002;5.468;2023-04-29T02:00:38;101522.28;;;10.55;91.53
73341;BME280;61578;52.002;5.468;2023-04-29T02:01:08;101525.03;;;10.53;91.51
73341;BME280;61578;52.002;5.468;2023-04-29T02:01:41;101527.59;;;10.55;91.76
73341;BME280;61578;52.002;5.468;2023-04-29T02:02:11;101511.75;;;10.53;91.96
73341;BME280;61578;52.002;5.468;2023-04-29T02:02:48;101520.66;;;10.52;91.79
73341;BME280;61578;52.002;5.468;2023-04-29T02:03:18;101525.03;;;10.53;91.85
73341;BME280;61578;52.002;5.468;2023-04-29T02:03:49;101519.00;;;10.50;91.72
73341;BME280;61578;52.002;5.468;2023-04-29T02:04:20;101524.88;;;10.56;91.72
73341;BME280;61578;52.002;5.468;2023-04-29T02:04:51;101530.34;;;10.53;92.25
73341;BME280;61578;52.002;5.468;2023-04-29T02:05:21;101527.53;;;10.56;91.91
73341;BME280;61578;52.002;5.468;2023-04-29T02:05:52;101519.50;;;10.58;91.66
73341;BME280;61578;52.002;5.468;2023-04-29T02:06:25;101519.56;;;10.56;91.69
73341;BME280;61578;52.002;5.468;2023-04-29T02:06:58;101534.56;;;10.57;91.37
73341;BME280;61578;52.002;5.468;2023-04-29T02:07:28;101481.38;;;10.26;91.79
73341;BME280;61578;52.002;5.468;2023-04-29T02:08:00;101525.97;;;10.52;91.62
73341;BME280;61578;52.002;5.468;2023-04-29T02:08:31;101535.56;;;10.55;91.99
73341;BME280;61578;52.002;5.468;2023-04-29T02:09:02;101533.78;;;10.55;91.46
73341;BME280;61578;52.002;5.468;2023-04-29T02:09:33;101529.75;;;10.48;91.24
73341;BME280;61578;52.002;5.468;2023-04-29T02:10:04;101535.56;;;10.55;91.67
73341;BME280;61578;52.002;5.468;2023-04-29T02:10:35;101534.72;;;10.54;91.71
73341;BME280;61578;52.002;5.468;2023-04-29T02:11:15;101533.00;;;10.53;91.41
73341;BME280;61578;52.002;5.468;2023-04-29T02:11:46;101532.06;;;10.54;91.53
73341;BME280;61578;52.002;5.468;2023-04-29T02:12:16;101535.66;;;10.53;91.64
73341;BME280;61578;52.002;5.468;2023-04-29T02:12:47;101533.94;;;10.52;90.99
73341;BME280;61578;52.002;5.468;2023-04-29T02:13:24;101526.91;;;10.51;91.68
73341;BME280;61578;52.002;5.468;2023-04-29T02:13:55;101536.59;;;10.52;91.46
73341;BME280;61578;52.002;5.468;2023-04-29T02:14:26;101529.47;;;10.53;91.66
73341;BME280;61578;52.002;5.468;2023-04-29T02:14:57;101523.56;;;10.48;91.19
73341;BME280;61578;52.002;5.468;2023-04-29T02:15:30;101522.72;;;10.47;91.09
73341;BME280;61578;52.002;5.468;2023-04-29T02:16:08;101535.66;;;10.53;91.53
73341;BME280;61578;52.002;5.468;2023-04-29T02:16:43;101496.81;;;10.35;91.33
73341;BME280;61578;52.002;5.468;2023-04-29T02:17:20;101535.66;;;10.53;91.03
73341;BME280;61578;52.002;5.468;2023-04-29T02:17:51;101525.19;;;10.50;91.02
73341;BME280;61578;52.002;5.468;2023-04-29T02:18:22;101528.63;;;10.52;90.98
73341;BME280;61578;52.002;5.468;2023-04-29T02:18:52;101533.84;;;10.54;91.60
73341;BME280;61578;52.002;5.468;2023-04-29T02:19:23;101504.84;;;10.33;91.42
73341;BME280;61578;52.002;5.468;2023-04-29T02:19:53;101539.00;;;10.57;91.04
73341;BME280;61578;52.002;5.468;2023-04-29T02:20:24;101547.84;;;10.57;91.02
73341;BME280;61578;52.002;5.468;2023-04-29T02:20:59;101541.59;;;10.58;91.61
73341;BME280;61578;52.002;5.468;2023-04-29T02:21:31;101489.25;;;10.27;91.49
73341;BME280;61578;52.002;5.468;2023-04-29T02:22:01;101540.72;;;10.58;91.16
73341;BME280;61578;52.002;5.468;2023-04-29T02:22:38;101537.38;;;10.54;91.40
73341;BME280;61578;52.002;5.468;2023-04-29T02:23:09;101539.25;;;10.52;91.35
73341;BME280;61578;52.002;5.468;2023-04-29T02:23:39;101539.16;;;10.54;91.09
73341;BME280;61578;52.002;5.468;2023-04-29T02:24:10;101535.81;;;10.50;91.64
73341;BME280;61578;52.002;5.468;2023-04-29T02:24:41;101535.81;;;10.50;91.25
73341;BME280;61578;52.002;5.468;2023-04-29T02:25:12;101539.31;;;10.51;91.11
73341;BME280;61578;52.002;5.468;2023-04-29T02:25:45;101542.81;;;10.51;91.42
73341;BME280;61578;52.002;5.468;2023-04-29T02:26:16;101541.03;;;10.52;91.14
73341;BME280;61578;52.002;5.468;2023-04-29T02:26:48;101540.97;;;10.53;91.90
73341;BME280;61578;52.002;5.468;2023-04-29T02:27:32;101547.06;;;10.55;91.84
73341;BME280;61578;52.002;5.468;2023-04-29T02:28:03;101547.06;;;10.55;91.72
73341;BME280;61578;52.002;5.468;2023-04-29T02:28:36;101542.53;;;10.57;91.84
73341;BME280;61578;52.002;5.468;2023-04-29T02:29:08;101537.53;;;10.51;91.70
73341;BME280;61578;52.002;5.468;2023-04-29T02:29:39;101540.81;;;10.56;91.20
73341;BME280;61578;52.002;5.468;2023-04-29T02:30:09;101549.78;;;10.54;90.92
73341;BME280;61578;52.002;5.468;2023-04-29T02:30:40;101493.00;;;10.23;91.72
73341;BME280;61578;52.002;5.468;2023-04-29T02:31:11;101544.56;;;10.52;91.62
73341;BME280;61578;52.002;5.468;2023-04-29T02:31:42;101549.00;;;10.52;91.78
73341;BME280;61578;52.002;5.468;2023-04-29T02:32:13;101541.91;;;10.52;91.34
73341;BME280;61578;52.002;5.468;2023-04-29T02:32:45;101549.84;;;10.52;91.36
73341;BME280;61578;52.002;5.468;2023-04-29T02:33:16;101502.91;;;10.20;91.60
73341;BME280;61578;52.002;5.468;2023-04-29T02:33:47;101543.00;;;10.48;91.58
73341;BME280;61578;52.002;5.468;2023-04-29T02:34:18;101548.94;;;10.53;91.89
73341;BME280;61578;52.002;5.468;2023-04-29T02:34:50;101548.13;;;10.51;91.80
73341;BME280;61578;52.002;5.468;2023-04-29T02:35:21;101548.94;;;10.53;92.01
73341;BME280;61578;52.002;5.468;2023-04-29T02:35:51;101551.56;;;10.53;91.31
73341;BME280;61578;52.002;5.468;2023-04-29T02:36:25;101554.16;;;10.55;91.85
73341;BME280;61578;52.002;5.468;2023-04-29T02:36:56;101555.03;;;10.55;91.96
73341;BME280;61578;52.002;5.468;2023-04-29T02:37:27;101557.75;;;10.54;91.70
73341;BME280;61578;52.002;5.468;2023-04-29T02:37:58;101553.31;;;10.54;91.77
73341;BME280;61578;52.002;5.468;2023-04-29T02:38:29;101519.13;;;10.31;91.60
73341;BME280;61578;52.002;5.468;2023-04-29T02:39:02;101551.56;;;10.53;92.08
73341;BME280;61578;52.002;5.468;2023-04-29T02:39:33;101550.88;;;10.50;92.09
73341;BME280;61578;52.002;5.468;2023-04-29T02:40:04;101567.50;;;10.53;91.27
73341;BME280;61578;52.002;5.468;2023-04-29T02:40:42;101559.63;;;10.52;91.49
73341;BME280;61578;52.002;5.468;2023-04-29T02:41:17;101565.78;;;10.52;92.16
73341;BME280;61578;52.002;5.468;2023-04-29T02:41:53;101563.13;;;10.52;92.05
73341;BME280;61578;52.002;5.468;2023-04-29T02:42:24;101563.06;;;10.54;92.16
73341;BME280;61578;52.002;5.468;2023-04-29T02:42:55;101564.78;;;10.55;92.03
73341;BME280;61578;52.002;5.468;2023-04-29T02:43:26;101562.19;;;10.53;92.28
73341;BME280;61578;52.002;5.468;2023-04-29T02:44:00;101566.50;;;10.56;91.54
73341;BME280;61578;52.002;5.468;2023-04-29T02:44:30;101553.72;;;10.47;91.34
73341;BME280;61578;52.002;5.468;2023-04-29T02:45:04;101569.22;;;10.54;92.07
73341;BME280;61578;52.002;5.468;2023-04-29T02:45:38;101535.75;;;10.35;91.34
73341;BME280;61578;52.002;5.468;2023-04-29T02:46:12;101573.59;;;10.55;91.73
73341;BME280;61578;52.002;5.468;2023-04-29T02:46:45;101569.22;;;10.54;91.77
73341;BME280;61578;52.002;5.468;2023-04-29T02:47:17;101569.31;;;10.53;91.92
73341;BME280;61578;52.002;5.468;2023-04-29T02:47:47;101581.72;;;10.52;91.62
73341;BME280;61578;52.002;5.468;2023-04-29T02:48:18;101576.25;;;10.55;91.52
73341;BME280;61578;52.002;5.468;2023-04-29T02:48:50;101571.09;;;10.52;91.93
73341;BME280;61578;52.002;5.468;2023-04-29T02:49:20;101561.34;;;10.53;92.15
73341;BME280;61578;52.002;5.468;2023-04-29T02:49:51;101566.66;;;10.53;91.45
73341;BME280;61578;52.002;5.468;2023-04-29T02:50:22;101565.72;;;10.54;91.37
73341;BME280;61578;52.002;5.468;2023-04-29T02:50:55;101568.38;;;10.54;91.75
73341;BME280;61578;52.002;5.468;2023-04-29T02:51:26;101568.28;;;10.55;92.01
73341;BME280;61578;52.002;5.468;2023-04-29T02:51:57;101575.31;;;10.56;91.49
73341;BME280;61578;52.002;5.468;2023-04-29T02:52:27;101571.81;;;10.56;91.65
73341;BME280;61578;52.002;5.468;2023-04-29T02:53:02;101567.44;;;10.55;91.49
73341;BME280;61578;52.002;5.468;2023-04-29T02:53:38;101540.72;;;10.41;91.76
73341;BME280;61578;52.002;5.468;2023-04-29T02:54:09;101560.63;;;10.49;91.35
73341;BME280;61578;52.002;5.468;2023-04-29T02:54:41;101558.94;;;10.48;91.25
73341;BME280;61578;52.002;5.468;2023-04-29T02:55:11;101578.13;;;10.53;91.08
73341;BME280;61578;52.002;5.468;2023-04-29T02:55:42;101562.44;;;10.49;91.29
73341;BME280;61578;52.002;5.468;2023-04-29T02:56:13;101571.09;;;10.52;91.00
73341;BME280;61578;52.002;5.468;2023-04-29T02:56:46;101540.34;;;10.31;90.98
73341;BME280;61578;52.002;5.468;2023-04-29T02:57:17;101576.41;;;10.52;91.28
73341;BME280;61578;52.002;5.468;2023-04-29T02:57:48;101558.22;;;10.45;91.26
73341;BME280;61578;52.002;5.468;2023-04-29T02:58:19;101573.84;;;10.51;91.43
73341;BME280;61578;52.002;5.468;2023-04-29T02:58:49;101578.13;;;10.53;91.17
73341;BME280;61578;52.002;5.468;2023-04-29T02:59:20;101573.69;;;10.54;90.99
73341;BME280;61578;52.002;5.468;2023-04-29T02:59:51;101570.16;;;10.53;91.22
73341;BME280;61578;52.002;5.468;2023-04-29T03:00:22;101566.91;;;10.48;91.76
73341;BME280;61578;52.002;5.468;2023-04-29T03:00:53;101543.88;;;10.31;91.15
73341;BME280;61578;52.002;5.468;2023-04-29T03:01:26;101568.00;;;10.44;90.93
73341;BME280;61578;52.002;5.468;2023-04-29T03:01:57;101572.09;;;10.50;91.21
73341;BME280;61578;52.002;5.468;2023-04-29T03:02:27;101580.94;;;10.50;91.75
73341;BME280;61578;52.002;5.468;2023-04-29T03:03:01;101580.88;;;10.52;91.63
73341;BME280;61578;52.002;5.468;2023-04-29T03:03:32;101584.38;;;10.52;91.78
73341;BME280;61578;52.002;5.468;2023-04-29T03:04:04;101573.75;;;10.52;91.96
73341;BME280;61578;52.002;5.468;2023-04-29T03:04:39;101578.91;;;10.55;91.68
73341;BME280;61578;52.002;5.468;2023-04-29T03:05:09;101587.75;;;10.56;91.50
73341;BME280;61578;52.002;5.468;2023-04-29T03:05:40;101587.75;;;10.56;91.70
73341;BME280;61578;52.002;5.468;2023-04-29T03:06:11;101572.97;;;10.50;91.95